createdAt,value
2018-09-26T00:00:23.417Z,1.80
2018-09-26T00:02:55.091Z,1.70
2018-09-26T00:05:23.002Z,1.43
2018-09-26T00:07:50.837Z,1.37
2018-09-26T00:10:18.649Z,1.50
2018-09-26T00:12:46.533Z,1.40
2018-09-26T00:15:14.318Z,1.63
2018-09-26T00:17:42.087Z,2.03
2018-09-26T00:20:10.234Z,1.87
2018-09-26T00:22:38.011Z,2.10
2018-09-26T00:25:05.859Z,2.10
2018-09-26T00:27:33.650Z,2.10
2018-09-26T00:30:01.415Z,2.30
2018-09-26T00:32:29.302Z,1.83
2018-09-26T00:34:57.082Z,1.70
2018-09-26T00:37:24.878Z,1.70
2018-09-26T00:39:52.674Z,1.90
2018-09-26T00:42:20.639Z,2.00
2018-09-26T00:44:48.654Z,1.80
2018-09-26T00:47:16.551Z,2.10
2018-09-26T00:49:44.392Z,1.97
2018-09-26T00:52:12.186Z,1.80
2018-09-26T00:54:40.028Z,1.90
2018-09-26T00:57:07.789Z,1.70
2018-09-26T00:59:35.602Z,1.40
2018-09-26T01:02:03.364Z,1.60
2018-09-26T01:04:31.211Z,1.80
2018-09-26T01:06:59.015Z,1.70
2018-09-26T01:09:26.783Z,1.60
2018-09-26T01:11:54.591Z,1.43
2018-09-26T01:14:22.353Z,1.40
2018-09-26T01:16:50.130Z,2.10
2018-09-26T01:19:17.898Z,2.33
2018-09-26T01:21:45.726Z,2.03
2018-09-26T01:24:13.518Z,1.90
2018-09-26T01:26:41.391Z,2.00
2018-09-26T01:29:09.173Z,2.20
2018-09-26T01:31:37.028Z,2.60
2018-09-26T01:34:04.845Z,2.10
2018-09-26T01:36:32.639Z,2.27
2018-09-26T01:39:00.452Z,2.17
2018-09-26T01:41:28.252Z,2.17
2018-09-26T01:43:56.182Z,2.20
2018-09-26T01:46:24.009Z,1.93
2018-09-26T01:48:51.854Z,2.10
2018-09-26T01:51:19.747Z,2.20
2018-09-26T01:53:47.595Z,2.00
2018-09-26T01:56:15.389Z,2.30
2018-09-26T01:58:43.163Z,2.50
2018-09-26T02:01:10.971Z,2.30
2018-09-26T02:03:38.750Z,2.13
2018-09-26T02:06:06.565Z,2.20
2018-09-26T02:08:34.363Z,2.47
2018-09-26T02:11:02.202Z,2.27
2018-09-26T02:13:30.297Z,2.43
2018-09-26T02:15:58.074Z,2.40
2018-09-26T02:18:25.868Z,2.07
2018-09-26T02:20:53.646Z,2.23
2018-09-26T02:23:21.463Z,2.20
2018-09-26T02:25:49.262Z,2.00
2018-09-26T02:28:17.081Z,2.03
2018-09-26T02:30:44.869Z,2.20
2018-09-26T02:33:12.723Z,2.20
2018-09-26T02:35:40.502Z,2.07
2018-09-26T02:38:08.279Z,1.90
2018-09-26T02:40:36.076Z,2.43
2018-09-26T02:43:03.861Z,2.10
2018-09-26T02:45:31.708Z,2.03
2018-09-26T02:47:59.566Z,2.13
2018-09-26T02:50:27.418Z,2.13
2018-09-26T02:52:55.202Z,2.23
2018-09-26T02:55:22.982Z,2.30
2018-09-26T02:57:50.766Z,2.00
2018-09-26T03:00:18.558Z,2.07
2018-09-26T03:02:46.397Z,2.17
2018-09-26T03:05:14.175Z,2.00
2018-09-26T03:07:41.944Z,1.87
2018-09-26T03:10:09.755Z,2.37
2018-09-26T03:12:37.528Z,2.10
2018-09-26T03:15:05.405Z,2.00
2018-09-26T03:17:33.210Z,2.10
2018-09-26T03:20:01.074Z,2.30
2018-09-26T03:22:28.846Z,2.23
2018-09-26T03:24:56.641Z,2.03
2018-09-26T03:27:24.494Z,2.20
2018-09-26T03:29:52.237Z,2.03
2018-09-26T03:32:20.019Z,2.10
2018-09-26T03:34:47.840Z,2.33
2018-09-26T03:37:15.642Z,2.17
2018-09-26T03:39:43.461Z,2.67
2018-09-26T03:42:11.347Z,2.47
2018-09-26T03:44:39.107Z,2.53
2018-09-26T03:47:06.903Z,2.70
2018-09-26T03:49:34.690Z,3.10
2018-09-26T03:52:02.477Z,4.47
2018-09-26T03:54:30.262Z,4.07
2018-09-26T03:56:58.031Z,3.93
2018-09-26T03:59:25.835Z,4.70
2018-09-26T04:04:25.727Z,4.30
2018-09-26T04:06:53.498Z,3.83
2018-09-26T04:09:21.309Z,2.90
2018-09-26T04:11:49.090Z,3.00
2018-09-26T04:14:16.859Z,3.17
2018-09-26T04:16:44.660Z,3.10
2018-09-26T04:19:12.440Z,2.97
2018-09-26T04:21:40.239Z,3.13
2018-09-26T04:24:08.003Z,2.70
2018-09-26T04:26:35.929Z,3.03
2018-09-26T04:29:03.678Z,3.03
2018-09-26T04:31:31.456Z,2.90
2018-09-26T04:33:59.327Z,3.50
2018-09-26T04:36:27.075Z,3.77
2018-09-26T04:38:54.997Z,3.70
2018-09-26T04:41:22.718Z,4.10
2018-09-26T04:43:50.509Z,3.67
2018-09-26T04:46:18.281Z,3.73
2018-09-26T04:48:46.221Z,3.83
2018-09-26T04:51:14.010Z,3.33
2018-09-26T04:53:41.785Z,3.37
2018-09-26T04:56:09.662Z,3.30
2018-09-26T04:58:37.438Z,5.23
2018-09-26T05:01:05.268Z,4.20
2018-09-26T05:03:33.035Z,4.30
2018-09-26T05:06:00.833Z,7.13
2018-09-26T05:08:28.620Z,3.47
2018-09-26T05:10:56.450Z,3.73
2018-09-26T05:13:24.278Z,4.00
2018-09-26T05:15:52.099Z,3.80
2018-09-26T05:18:19.894Z,4.17
2018-09-26T05:20:47.687Z,3.63
2018-09-26T05:23:15.522Z,4.20
2018-09-26T05:25:43.305Z,3.43
2018-09-26T05:28:11.102Z,4.53
2018-09-26T05:30:38.915Z,4.47
2018-09-26T05:33:06.759Z,9.13
2018-09-26T05:35:34.602Z,4.20
2018-09-26T05:38:02.375Z,4.13
2018-09-26T05:40:30.155Z,3.47
2018-09-26T05:42:57.984Z,3.37
2018-09-26T05:45:25.805Z,3.47
2018-09-26T05:47:53.598Z,4.50
2018-09-26T05:50:21.424Z,3.37
2018-09-26T05:52:49.216Z,3.57
2018-09-26T05:55:17.032Z,4.33
2018-09-26T05:57:44.844Z,3.77
2018-09-26T06:00:12.619Z,4.13
2018-09-26T06:02:40.418Z,3.00
2018-09-26T06:05:09.220Z,4.23
2018-09-26T06:07:37.057Z,3.83
2018-09-26T06:10:04.858Z,3.53
2018-09-26T06:12:33.267Z,3.53
2018-09-26T06:15:01.063Z,3.20
2018-09-26T06:17:28.874Z,4.17
2018-09-26T06:19:56.819Z,3.83
2018-09-26T06:22:24.620Z,6.77
2018-09-26T06:24:52.465Z,4.47
2018-09-26T06:27:20.258Z,2.70
2018-09-26T06:29:48.046Z,2.57
2018-09-26T06:32:15.827Z,2.27
2018-09-26T06:34:43.618Z,2.23
2018-09-26T06:37:11.418Z,1.97
2018-09-26T06:39:39.208Z,1.47
2018-09-26T06:42:07.007Z,1.47
2018-09-26T06:44:34.783Z,1.67
2018-09-26T06:47:02.650Z,2.37
2018-09-26T06:49:30.524Z,1.40
2018-09-26T06:51:58.330Z,1.40
2018-09-26T06:54:26.124Z,1.60
2018-09-26T06:56:53.881Z,1.30
2018-09-26T06:59:21.672Z,2.47
2018-09-26T07:01:49.448Z,1.50
2018-09-26T07:04:17.234Z,1.27
2018-09-26T07:06:45.042Z,2.83
2018-09-26T07:09:12.878Z,1.50
2018-09-26T07:11:40.646Z,1.63
2018-09-26T07:14:08.436Z,1.43
2018-09-26T07:16:36.294Z,1.60
2018-09-26T07:19:04.065Z,1.50
2018-09-26T07:21:31.838Z,1.60
2018-09-26T07:23:59.718Z,1.23
2018-09-26T07:26:27.497Z,1.33
2018-09-26T07:28:55.250Z,1.63
2018-09-26T07:31:23.255Z,1.80
2018-09-26T07:33:51.581Z,4.10
2018-09-26T07:36:19.368Z,1.87
2018-09-26T07:38:47.262Z,1.70
2018-09-26T07:41:15.045Z,1.60
2018-09-26T07:43:42.825Z,1.97
2018-09-26T07:46:10.588Z,1.80
2018-09-26T07:48:38.374Z,1.57
2018-09-26T07:51:06.213Z,1.70
2018-09-26T07:53:34.057Z,1.70
2018-09-26T07:56:01.826Z,1.70
2018-09-26T07:58:29.643Z,1.80
2018-09-26T08:00:57.442Z,1.80
2018-09-26T08:03:25.230Z,1.60
2018-09-26T08:05:53.045Z,1.90
2018-09-26T08:08:21.143Z,2.00
2018-09-26T08:10:48.938Z,1.80
2018-09-26T08:13:16.766Z,7.10
2018-09-26T08:15:44.582Z,1.50
2018-09-26T08:18:12.415Z,2.33
2018-09-26T08:20:41.119Z,1.20
2018-09-26T08:23:08.967Z,1.77
2018-09-26T08:25:36.777Z,1.40
2018-09-26T08:28:04.568Z,1.30
2018-09-26T08:30:32.348Z,1.40
2018-09-26T08:33:00.215Z,1.33
2018-09-26T08:35:28.001Z,1.30
2018-09-26T08:37:55.771Z,1.20
2018-09-26T08:40:23.988Z,1.73
2018-09-26T08:42:51.828Z,1.30
2018-09-26T08:45:19.949Z,1.10
2018-09-26T08:47:47.737Z,1.30
2018-09-26T08:50:15.688Z,1.30
2018-09-26T08:52:43.477Z,1.27
2018-09-26T08:55:11.312Z,1.20
2018-09-26T08:57:39.112Z,1.20
2018-09-26T09:00:07.293Z,1.30
2018-09-26T09:02:35.106Z,1.20
2018-09-26T09:05:02.880Z,1.47
2018-09-26T09:07:30.679Z,1.07
2018-09-26T09:09:58.458Z,1.10
2018-09-26T09:12:26.378Z,1.20
2018-09-26T09:14:54.322Z,1.30
2018-09-26T09:17:21.944Z,1.00
2018-09-26T09:19:49.724Z,1.23
2018-09-26T09:22:17.485Z,1.20
2018-09-26T09:24:45.268Z,1.23
2018-09-26T09:27:13.082Z,1.23
2018-09-26T09:29:40.883Z,1.20
2018-09-26T09:32:08.648Z,1.53
2018-09-26T09:34:36.534Z,1.13
2018-09-26T09:37:04.350Z,1.30
2018-09-26T09:39:32.122Z,1.17
2018-09-26T09:41:59.942Z,1.47
2018-09-26T09:44:27.788Z,1.60
2018-09-26T09:46:55.578Z,1.47
2018-09-26T09:49:29.849Z,1.43
2018-09-26T09:51:57.654Z,1.30
2018-09-26T09:54:25.416Z,3.70
2018-09-26T09:56:53.242Z,1.20
2018-09-26T09:59:21.061Z,1.13
2018-09-26T10:01:48.885Z,1.27
2018-09-26T10:04:16.749Z,1.20
2018-09-26T10:06:44.585Z,1.20
2018-09-26T10:09:12.410Z,1.20
2018-09-26T10:11:40.180Z,1.40
2018-09-26T10:14:08.025Z,1.53
2018-09-26T10:16:35.782Z,1.33
2018-09-26T10:19:03.594Z,1.77
2018-09-26T10:21:31.319Z,1.10
2018-09-26T10:23:59.058Z,1.20
2018-09-26T10:26:26.906Z,1.23
2018-09-26T10:28:54.618Z,3.20
2018-09-26T10:31:22.348Z,1.20
2018-09-26T10:33:50.110Z,2.10
2018-09-26T10:36:17.895Z,1.40
2018-09-26T10:38:45.773Z,0.87
2018-09-26T10:41:13.964Z,1.40
2018-09-26T10:43:42.104Z,1.40
2018-09-26T10:46:09.841Z,1.20
2018-09-26T10:48:37.660Z,1.40
2018-09-26T10:51:05.445Z,2.80
2018-09-26T10:53:33.263Z,1.40
2018-09-26T10:56:01.079Z,1.37
2018-09-26T10:58:28.834Z,1.10
2018-09-26T11:00:56.560Z,1.77
2018-09-26T11:03:24.350Z,1.60
2018-09-26T11:05:52.101Z,0.90
2018-09-26T11:08:19.868Z,1.10
2018-09-26T11:10:47.727Z,1.33
2018-09-26T11:13:15.599Z,1.30
2018-09-26T11:15:43.397Z,1.40
2018-09-26T11:18:11.172Z,1.00
2018-09-26T11:20:38.936Z,1.37
2018-09-26T11:23:06.734Z,1.17
2018-09-26T11:25:41.646Z,1.30
2018-09-26T11:28:09.379Z,1.30
2018-09-26T11:30:37.158Z,1.40
2018-09-26T11:33:04.921Z,1.40
2018-09-26T11:35:32.674Z,1.67
2018-09-26T11:38:00.436Z,1.37
2018-09-26T11:40:28.228Z,2.17
2018-09-26T11:42:55.992Z,1.30
2018-09-26T11:45:23.718Z,1.67
2018-09-26T11:47:51.688Z,1.73
2018-09-26T11:50:19.520Z,1.50
2018-09-26T11:52:47.230Z,1.80
2018-09-26T11:55:15.855Z,1.50
2018-09-26T11:57:47.952Z,1.60
2018-09-26T12:00:15.726Z,1.30
2018-09-26T12:02:43.611Z,1.87
2018-09-26T12:05:11.322Z,2.17
2018-09-26T12:07:39.198Z,1.10
2018-09-26T12:10:06.933Z,2.60
2018-09-26T12:12:34.709Z,1.80
2018-09-26T12:15:02.469Z,1.67
2018-09-26T12:17:30.250Z,2.60
2018-09-26T12:19:58.010Z,1.60
2018-09-26T12:22:25.823Z,1.40
2018-09-26T12:24:53.518Z,1.10
2018-09-26T12:27:21.257Z,1.63
2018-09-26T12:29:48.979Z,1.60
2018-09-26T12:32:16.835Z,1.20
2018-09-26T12:34:44.641Z,1.17
2018-09-26T12:37:12.430Z,1.43
2018-09-26T12:39:40.183Z,1.40
2018-09-26T12:42:07.945Z,1.20
2018-09-26T12:44:38.512Z,1.37
2018-09-26T12:47:06.400Z,1.33
2018-09-26T12:49:34.164Z,1.77
2018-09-26T12:52:01.916Z,1.27
2018-09-26T12:54:30.702Z,1.67
2018-09-26T12:56:58.443Z,1.20
2018-09-26T12:59:26.203Z,2.00
2018-09-26T13:01:54.006Z,1.50
2018-09-26T13:04:21.784Z,1.10
2018-09-26T13:06:49.582Z,0.97
2018-09-26T13:09:17.346Z,1.17
2018-09-26T13:11:45.105Z,2.33
2018-09-26T13:14:12.939Z,1.20
2018-09-26T13:16:40.782Z,1.90
2018-09-26T13:19:08.559Z,1.50
2018-09-26T13:21:36.325Z,1.20
2018-09-26T13:24:04.090Z,1.10
2018-09-26T13:26:31.835Z,1.20
2018-09-26T13:28:59.607Z,1.20
2018-09-26T13:31:27.355Z,1.40
2018-09-26T13:33:55.113Z,1.50
2018-09-26T13:36:22.922Z,1.43
2018-09-26T13:38:50.668Z,1.37
2018-09-26T13:41:18.422Z,1.47
2018-09-26T13:43:46.142Z,1.43
2018-09-26T13:46:13.958Z,2.80
2018-09-26T13:48:41.649Z,2.57
2018-09-26T13:51:09.441Z,1.17
2018-09-26T13:53:37.180Z,1.30
2018-09-26T13:56:05.017Z,1.30
2018-09-26T13:58:32.739Z,1.10
2018-09-26T14:01:00.463Z,1.23
2018-09-26T14:03:28.218Z,1.10
2018-09-26T14:05:55.979Z,0.87
2018-09-26T14:08:23.844Z,1.27
2018-09-26T14:10:51.573Z,1.30
2018-09-26T14:13:19.345Z,1.33
2018-09-26T14:15:47.110Z,1.20
2018-09-26T14:18:14.925Z,1.17
2018-09-26T14:20:42.656Z,1.50
2018-09-26T14:23:10.482Z,1.13
2018-09-26T14:25:38.194Z,1.20
2018-09-26T14:28:05.977Z,1.17
2018-09-26T14:30:33.851Z,1.30
2018-09-26T14:33:01.506Z,1.23
2018-09-26T14:35:29.252Z,1.20
2018-09-26T14:37:57.051Z,1.20
2018-09-26T14:40:24.765Z,1.97
2018-09-26T14:42:52.575Z,1.03
2018-09-26T14:45:20.343Z,1.20
2018-09-26T14:47:48.054Z,1.37
2018-09-26T14:50:15.876Z,1.53
2018-09-26T14:52:43.653Z,1.73
2018-09-26T14:55:11.490Z,1.77
2018-09-26T14:57:39.224Z,1.90
2018-09-26T15:00:07.581Z,1.73
2018-09-26T15:02:35.302Z,1.47
2018-09-26T15:05:03.096Z,1.50
2018-09-26T15:07:30.867Z,1.50
2018-09-26T15:09:58.627Z,1.60
2018-09-26T15:12:26.528Z,1.33
2018-09-26T15:14:54.238Z,1.40
2018-09-26T15:17:22.021Z,1.50
2018-09-26T15:19:49.792Z,1.90
2018-09-26T15:22:17.636Z,1.57
2018-09-26T15:24:45.667Z,1.50
2018-09-26T15:27:13.441Z,1.60
2018-09-26T15:29:41.188Z,1.60
2018-09-26T15:32:08.944Z,1.90
2018-09-26T15:34:36.750Z,2.00
2018-09-26T15:37:07.126Z,1.73
2018-09-26T15:39:34.860Z,2.10
2018-09-26T15:42:02.610Z,2.27
2018-09-26T15:44:30.351Z,2.03
2018-09-26T15:46:58.109Z,1.80
2018-09-26T15:49:25.871Z,2.07
2018-09-26T15:51:53.631Z,1.63
2018-09-26T15:54:21.453Z,1.30
2018-09-26T15:56:49.290Z,1.30
2018-09-26T15:59:17.080Z,1.40
2018-09-26T16:01:44.825Z,1.50
2018-09-26T16:04:12.646Z,1.73
2018-09-26T16:06:40.383Z,1.63
2018-09-26T16:09:08.165Z,1.70
2018-09-26T16:11:36.040Z,2.50
2018-09-26T16:14:03.831Z,1.90
2018-09-26T16:16:31.629Z,1.97
2018-09-26T16:18:59.457Z,1.70
2018-09-26T16:21:27.214Z,1.63
2018-09-26T16:23:55.106Z,1.70
2018-09-26T16:26:22.891Z,1.90
2018-09-26T16:28:50.649Z,1.67
2018-09-26T16:31:18.436Z,1.70
2018-09-26T16:33:46.211Z,2.67
2018-09-26T16:36:14.057Z,2.20
2018-09-26T16:38:43.008Z,4.03
2018-09-26T16:41:10.942Z,3.03
2018-09-26T16:43:38.689Z,3.40
2018-09-26T16:46:06.482Z,4.53
2018-09-26T16:48:34.268Z,10.73
2018-09-26T16:51:02.065Z,5.00
2018-09-26T16:53:29.877Z,3.80
2018-09-26T16:55:57.915Z,3.80
2018-09-26T16:58:25.704Z,3.03
2018-09-26T17:00:53.518Z,2.00
2018-09-26T17:03:21.379Z,3.87
2018-09-26T17:05:49.134Z,2.10
2018-09-26T17:08:16.935Z,4.23
2018-09-26T17:10:45.118Z,3.00
2018-09-26T17:13:12.888Z,3.57
2018-09-26T17:15:40.664Z,4.70
2018-09-26T17:18:08.489Z,5.00
2018-09-26T17:20:36.246Z,4.10
2018-09-26T17:23:04.046Z,3.00
2018-09-26T17:25:31.877Z,2.30
2018-09-26T17:27:59.660Z,2.37
2018-09-26T17:30:27.456Z,3.23
2018-09-26T17:32:55.229Z,5.93
2018-09-26T17:35:22.983Z,4.73
2018-09-26T17:37:50.779Z,4.17
2018-09-26T17:40:18.562Z,4.60
2018-09-26T17:42:46.442Z,4.13
2018-09-26T17:45:14.217Z,4.87
2018-09-26T17:47:42.046Z,4.60
2018-09-26T17:50:10.283Z,2.43
2018-09-26T17:52:38.094Z,2.40
2018-09-26T17:55:05.848Z,3.63
2018-09-26T17:57:33.584Z,3.87
2018-09-26T18:00:01.391Z,3.90
2018-09-26T18:02:29.146Z,2.90
2018-09-26T18:04:56.916Z,3.23
2018-09-26T18:07:24.659Z,3.57
2018-09-26T18:09:52.482Z,4.83
2018-09-26T18:12:20.265Z,4.93
2018-09-26T18:14:48.081Z,4.53
2018-09-26T18:17:15.865Z,4.23
2018-09-26T18:19:43.641Z,6.97
2018-09-26T18:22:11.424Z,4.67
2018-09-26T18:24:39.182Z,5.10
2018-09-26T18:27:06.971Z,4.17
2018-09-26T18:29:34.874Z,3.47
2018-09-26T18:32:02.720Z,4.20
2018-09-26T18:34:30.459Z,6.47
2018-09-26T18:36:58.198Z,6.07
2018-09-26T18:39:26.145Z,5.10
2018-09-26T18:41:53.766Z,6.23
2018-09-26T18:44:21.554Z,4.27
2018-09-26T18:46:49.334Z,4.00
2018-09-26T18:49:17.099Z,5.07
2018-09-26T18:51:44.878Z,5.67
2018-09-26T18:54:12.671Z,4.47
2018-09-26T18:56:40.411Z,4.03
2018-09-26T18:59:08.215Z,4.30
2018-09-26T19:01:35.989Z,4.17
2018-09-26T19:04:03.747Z,4.70
2018-09-26T19:06:31.518Z,6.07
2018-09-26T19:08:59.262Z,5.20
2018-09-26T19:11:27.105Z,5.37
2018-09-26T19:13:54.864Z,5.90
2018-09-26T19:16:22.599Z,5.80
2018-09-26T19:18:50.382Z,5.60
2018-09-26T19:21:21.307Z,4.77
2018-09-26T19:23:49.038Z,4.63
2018-09-26T19:26:16.799Z,4.17
2018-09-26T19:28:44.566Z,3.70
2018-09-26T19:31:13.075Z,3.50
2018-09-26T19:33:40.955Z,3.63
2018-09-26T19:36:08.705Z,3.97
2018-09-26T19:38:36.455Z,3.70
2018-09-26T19:41:04.194Z,2.80
2018-09-26T19:43:31.935Z,2.97
2018-09-26T19:45:59.702Z,3.10
2018-09-26T19:48:27.450Z,3.73
2018-09-26T19:50:55.251Z,4.40
2018-09-26T19:53:23.006Z,3.73
2018-09-26T19:55:50.877Z,3.73
2018-09-26T19:58:18.812Z,5.20
2018-09-26T20:00:46.603Z,4.73
2018-09-26T20:03:14.378Z,4.03
2018-09-26T20:05:42.126Z,3.20
2018-09-26T20:08:10.052Z,4.53
2018-09-26T20:10:37.754Z,3.53
2018-09-26T20:13:05.553Z,3.33
2018-09-26T20:15:33.256Z,2.90
2018-09-26T20:18:01.331Z,3.03
2018-09-26T20:20:29.086Z,3.07
2018-09-26T20:22:56.883Z,2.70
2018-09-26T20:25:24.670Z,3.30
2018-09-26T20:27:52.423Z,3.40
2018-09-26T20:30:20.283Z,3.00
2018-09-26T20:32:48.014Z,2.70
2018-09-26T20:35:15.785Z,2.70
2018-09-26T20:37:43.592Z,2.33
2018-09-26T20:40:11.328Z,2.53
2018-09-26T20:42:39.113Z,3.00
2018-09-26T20:45:06.915Z,3.07
2018-09-26T20:47:34.671Z,2.70
2018-09-26T20:50:02.449Z,3.27
2018-09-26T20:52:30.534Z,3.40
2018-09-26T20:54:58.314Z,2.97
2018-09-26T20:57:26.102Z,2.90
2018-09-26T20:59:53.886Z,3.40
2018-09-26T21:02:21.627Z,3.17
2018-09-26T21:04:49.386Z,3.30
2018-09-26T21:07:17.184Z,3.10
2018-09-26T21:09:44.960Z,2.97
2018-09-26T21:12:12.676Z,2.33
2018-09-26T21:14:40.501Z,2.60
2018-09-26T21:17:08.299Z,3.07
2018-09-26T21:19:36.043Z,3.40
2018-09-26T21:22:03.822Z,2.30
2018-09-26T21:24:31.926Z,3.70
2018-09-26T21:26:59.671Z,2.70
2018-09-26T21:29:27.443Z,2.87
2018-09-26T21:31:55.281Z,3.20
2018-09-26T21:34:23.054Z,3.50
2018-09-26T21:36:50.834Z,2.70
2018-09-26T21:39:18.575Z,3.23
2018-09-26T21:41:46.383Z,3.70
2018-09-26T21:44:14.144Z,3.43
2018-09-26T21:46:41.859Z,2.90
2018-09-26T21:49:09.593Z,3.63
2018-09-26T21:51:37.336Z,3.07
2018-09-26T21:54:05.182Z,3.73
2018-09-26T21:56:32.927Z,3.27
2018-09-26T21:59:00.682Z,3.20
2018-09-26T22:01:31.020Z,4.13
2018-09-26T22:03:58.827Z,4.43
2018-09-26T22:06:26.658Z,4.53
2018-09-26T22:08:54.486Z,5.67
2018-09-26T22:11:22.282Z,5.10
2018-09-26T22:13:50.269Z,5.10
2018-09-26T22:16:18.079Z,5.63
2018-09-26T22:18:45.863Z,6.27
2018-09-26T22:21:13.642Z,8.13
2018-09-26T22:23:41.384Z,8.47
2018-09-26T22:26:09.202Z,8.00
2018-09-26T22:28:36.960Z,7.03
2018-09-26T22:31:04.759Z,6.73
2018-09-26T22:33:32.582Z,6.27
2018-09-26T22:36:00.325Z,5.83
2018-09-26T22:38:28.166Z,5.50
2018-09-26T22:40:55.920Z,5.87
2018-09-26T22:43:23.681Z,6.80
2018-09-26T22:45:51.439Z,5.90
2018-09-26T22:48:19.251Z,4.10
2018-09-26T22:50:46.996Z,3.97
2018-09-26T22:53:14.757Z,3.70
2018-09-26T22:55:42.522Z,3.93
2018-09-26T22:58:10.317Z,3.17
2018-09-26T23:00:38.118Z,3.17
2018-09-26T23:03:06.174Z,3.37
2018-09-26T23:05:33.904Z,3.23
2018-09-26T23:08:01.656Z,3.53
2018-09-26T23:10:29.434Z,3.40
2018-09-26T23:12:57.171Z,3.50
2018-09-26T23:15:24.930Z,3.30
2018-09-26T23:17:52.734Z,3.83
2018-09-26T23:20:20.486Z,3.23
2018-09-26T23:22:48.296Z,3.63
2018-09-26T23:25:16.052Z,3.57
2018-09-26T23:27:43.795Z,3.43
2018-09-26T23:30:11.582Z,3.83
2018-09-26T23:32:39.339Z,3.23
2018-09-26T23:35:07.105Z,3.43
2018-09-26T23:37:34.839Z,3.40
2018-09-26T23:40:02.700Z,3.83
2018-09-26T23:42:30.523Z,4.10
2018-09-26T23:44:58.302Z,3.87
2018-09-26T23:47:26.154Z,4.03
2018-09-26T23:49:53.877Z,3.70
2018-09-26T23:52:21.653Z,3.80
2018-09-26T23:54:49.426Z,3.80
2018-09-26T23:57:17.226Z,3.70
2018-09-26T23:59:44.974Z,3.40
